sensor_id;sensor_type;location;lat;lon;timestamp;P1;durP1;ratioP1;P2;durP2;ratioP2
59458;SDS011;45269;43.568;22.244;2022-12-18T00:01:50;66.90;;;52.25;;
59458;SDS011;45269;43.568;22.244;2022-12-18T00:04:20;66.22;;;52.92;;
59458;SDS011;45269;43.568;22.244;2022-12-18T00:06:46;72.07;;;54.80;;
59458;SDS011;45269;43.568;22.244;2022-12-18T00:09:12;79.70;;;64.50;;
59458;SDS011;45269;43.568;22.244;2022-12-18T00:11:37;68.93;;;55.20;;
59458;SDS011;45269;43.568;22.244;2022-12-18T00:14:02;78.57;;;58.20;;
59458;SDS011;45269;43.568;22.244;2022-12-18T00:16:28;92.00;;;71.22;;
59458;SDS011;45269;43.568;22.244;2022-12-18T00:18:55;92.72;;;67.22;;
59458;SDS011;45269;43.568;22.244;2022-12-18T00:21:24;92.72;;;66.32;;
59458;SDS011;45269;43.568;22.244;2022-12-18T00:23:50;91.18;;;64.43;;
59458;SDS011;45269;43.568;22.244;2022-12-18T00:26:37;84.40;;;63.42;;
59458;SDS011;45269;43.568;22.244;2022-12-18T00:29:02;74.35;;;57.28;;
59458;SDS011;45269;43.568;22.244;2022-12-18T00:31:28;96.47;;;68.47;;
59458;SDS011;45269;43.568;22.244;2022-12-18T00:33:54;94.10;;;67.95;;
59458;SDS011;45269;43.568;22.244;2022-12-18T00:36:21;119.13;;;84.00;;
59458;SDS011;45269;43.568;22.244;2022-12-18T00:38:47;150.60;;;103.32;;
59458;SDS011;45269;43.568;22.244;2022-12-18T00:41:13;142.77;;;102.68;;
59458;SDS011;45269;43.568;22.244;2022-12-18T00:43:59;115.10;;;83.70;;
59458;SDS011;45269;43.568;22.244;2022-12-18T00:46:24;109.68;;;79.32;;
59458;SDS011;45269;43.568;22.244;2022-12-18T00:48:49;101.20;;;73.20;;
59458;SDS011;45269;43.568;22.244;2022-12-18T00:51:15;102.18;;;73.10;;
59458;SDS011;45269;43.568;22.244;2022-12-18T00:53:40;79.22;;;60.17;;
59458;SDS011;45269;43.568;22.244;2022-12-18T00:56:06;79.50;;;58.70;;
59458;SDS011;45269;43.568;22.244;2022-12-18T00:58:31;70.07;;;55.05;;
59458;SDS011;45269;43.568;22.244;2022-12-18T01:00:56;73.47;;;56.50;;
59458;SDS011;45269;43.568;22.244;2022-12-18T01:03:22;71.15;;;53.75;;
59458;SDS011;45269;43.568;22.244;2022-12-18T01:05:47;68.45;;;51.55;;
59458;SDS011;45269;43.568;22.244;2022-12-18T01:08:12;69.90;;;53.15;;
59458;SDS011;45269;43.568;22.244;2022-12-18T01:10:41;65.50;;;52.75;;
59458;SDS011;45269;43.568;22.244;2022-12-18T01:13:06;85.25;;;61.65;;
59458;SDS011;45269;43.568;22.244;2022-12-18T01:15:32;87.57;;;62.15;;
59458;SDS011;45269;43.568;22.244;2022-12-18T01:17:57;71.28;;;52.83;;
59458;SDS011;45269;43.568;22.244;2022-12-18T01:20:22;62.38;;;50.00;;
59458;SDS011;45269;43.568;22.244;2022-12-18T01:22:48;65.40;;;51.65;;
59458;SDS011;45269;43.568;22.244;2022-12-18T01:25:13;66.22;;;51.17;;
59458;SDS011;45269;43.568;22.244;2022-12-18T01:27:39;64.97;;;49.95;;
59458;SDS011;45269;43.568;22.244;2022-12-18T01:30:04;63.92;;;49.58;;
59458;SDS011;45269;43.568;22.244;2022-12-18T01:32:30;64.50;;;51.25;;
59458;SDS011;45269;43.568;22.244;2022-12-18T01:34:56;61.17;;;49.30;;
59458;SDS011;45269;43.568;22.244;2022-12-18T01:37:21;61.67;;;48.75;;
59458;SDS011;45269;43.568;22.244;2022-12-18T01:39:46;67.82;;;53.55;;
59458;SDS011;45269;43.568;22.244;2022-12-18T01:42:13;71.65;;;53.92;;
59458;SDS011;45269;43.568;22.244;2022-12-18T01:49:45;76.32;;;60.50;;
59458;SDS011;45269;43.568;22.244;2022-12-18T01:52:10;68.88;;;53.95;;
59458;SDS011;45269;43.568;22.244;2022-12-18T01:54:36;66.60;;;53.63;;
59458;SDS011;45269;43.568;22.244;2022-12-18T01:57:01;77.03;;;56.20;;
59458;SDS011;45269;43.568;22.244;2022-12-18T01:59:26;69.32;;;54.78;;
59458;SDS011;45269;43.568;22.244;2022-12-18T02:01:53;68.05;;;52.10;;
59458;SDS011;45269;43.568;22.244;2022-12-18T02:04:19;64.97;;;50.95;;
59458;SDS011;45269;43.568;22.244;2022-12-18T02:06:45;66.03;;;53.20;;
59458;SDS011;45269;43.568;22.244;2022-12-18T02:09:12;71.90;;;57.72;;
59458;SDS011;45269;43.568;22.244;2022-12-18T02:25:07;68.45;;;55.45;;
59458;SDS011;45269;43.568;22.244;2022-12-18T02:27:38;68.10;;;54.08;;
59458;SDS011;45269;43.568;22.244;2022-12-18T02:30:04;73.65;;;58.95;;
59458;SDS011;45269;43.568;22.244;2022-12-18T02:32:31;68.43;;;57.35;;
59458;SDS011;45269;43.568;22.244;2022-12-18T02:34:58;66.30;;;55.03;;
59458;SDS011;45269;43.568;22.244;2022-12-18T02:37:24;69.13;;;56.70;;
59458;SDS011;45269;43.568;22.244;2022-12-18T02:39:51;67.75;;;53.60;;
59458;SDS011;45269;43.568;22.244;2022-12-18T02:42:18;68.35;;;55.33;;
59458;SDS011;45269;43.568;22.244;2022-12-18T02:44:44;71.97;;;60.15;;
59458;SDS011;45269;43.568;22.244;2022-12-18T02:47:11;73.45;;;57.97;;
59458;SDS011;45269;43.568;22.244;2022-12-18T02:49:53;66.00;;;56.33;;
59458;SDS011;45269;43.568;22.244;2022-12-18T02:57:56;70.97;;;55.30;;
59458;SDS011;45269;43.568;22.244;2022-12-18T03:00:31;61.15;;;51.50;;
59458;SDS011;45269;43.568;22.244;2022-12-18T03:02:59;61.58;;;51.65;;
59458;SDS011;45269;43.568;22.244;2022-12-18T03:05:31;62.33;;;50.55;;
59458;SDS011;45269;43.568;22.244;2022-12-18T03:08:00;60.08;;;50.30;;
59458;SDS011;45269;43.568;22.244;2022-12-18T03:10:28;63.33;;;51.47;;
59458;SDS011;45269;43.568;22.244;2022-12-18T03:12:57;63.38;;;52.17;;
59458;SDS011;45269;43.568;22.244;2022-12-18T03:15:25;66.13;;;53.45;;
59458;SDS011;45269;43.568;22.244;2022-12-18T03:17:55;65.80;;;54.77;;
59458;SDS011;45269;43.568;22.244;2022-12-18T03:20:23;64.32;;;53.35;;
59458;SDS011;45269;43.568;22.244;2022-12-18T03:22:51;58.30;;;50.72;;
59458;SDS011;45269;43.568;22.244;2022-12-18T03:25:18;58.55;;;49.88;;
59458;SDS011;45269;43.568;22.244;2022-12-18T03:27:46;60.78;;;49.35;;
59458;SDS011;45269;43.568;22.244;2022-12-18T03:30:12;54.22;;;44.72;;
59458;SDS011;45269;43.568;22.244;2022-12-18T03:32:48;54.78;;;45.92;;
59458;SDS011;45269;43.568;22.244;2022-12-18T03:35:16;56.72;;;45.72;;
59458;SDS011;45269;43.568;22.244;2022-12-18T03:37:44;58.08;;;48.20;;
59458;SDS011;45269;43.568;22.244;2022-12-18T03:40:09;66.25;;;54.85;;
59458;SDS011;45269;43.568;22.244;2022-12-18T03:42:56;60.40;;;51.08;;
59458;SDS011;45269;43.568;22.244;2022-12-18T03:45:24;68.53;;;54.67;;
59458;SDS011;45269;43.568;22.244;2022-12-18T03:47:55;64.00;;;51.27;;
59458;SDS011;45269;43.568;22.244;2022-12-18T03:50:29;63.70;;;52.25;;
59458;SDS011;45269;43.568;22.244;2022-12-18T03:53:14;69.03;;;57.20;;
59458;SDS011;45269;43.568;22.244;2022-12-18T03:55:42;66.70;;;54.63;;
59458;SDS011;45269;43.568;22.244;2022-12-18T03:58:08;62.92;;;51.83;;
59458;SDS011;45269;43.568;22.244;2022-12-18T04:00:34;62.40;;;52.38;;
59458;SDS011;45269;43.568;22.244;2022-12-18T04:03:00;64.55;;;51.42;;
59458;SDS011;45269;43.568;22.244;2022-12-18T04:05:26;63.58;;;51.65;;
59458;SDS011;45269;43.568;22.244;2022-12-18T04:07:52;64.13;;;53.22;;
59458;SDS011;45269;43.568;22.244;2022-12-18T04:10:19;70.80;;;58.25;;
59458;SDS011;45269;43.568;22.244;2022-12-18T04:12:44;71.95;;;57.63;;
59458;SDS011;45269;43.568;22.244;2022-12-18T04:15:10;67.80;;;56.40;;
59458;SDS011;45269;43.568;22.244;2022-12-18T04:17:36;67.63;;;54.45;;
59458;SDS011;45269;43.568;22.244;2022-12-18T04:20:01;66.78;;;56.03;;
59458;SDS011;45269;43.568;22.244;2022-12-18T04:22:27;66.65;;;54.95;;
59458;SDS011;45269;43.568;22.244;2022-12-18T04:24:52;63.85;;;52.35;;
59458;SDS011;45269;43.568;22.244;2022-12-18T04:27:17;62.63;;;50.67;;
59458;SDS011;45269;43.568;22.244;2022-12-18T04:29:43;64.50;;;49.50;;
59458;SDS011;45269;43.568;22.244;2022-12-18T04:32:08;63.38;;;52.63;;
59458;SDS011;45269;43.568;22.244;2022-12-18T04:34:34;60.95;;;48.10;;
59458;SDS011;45269;43.568;22.244;2022-12-18T04:36:59;57.00;;;45.65;;
59458;SDS011;45269;43.568;22.244;2022-12-18T04:39:24;59.42;;;49.65;;
59458;SDS011;45269;43.568;22.244;2022-12-18T04:41:50;58.83;;;46.55;;
59458;SDS011;45269;43.568;22.244;2022-12-18T04:44:15;67.38;;;52.88;;
59458;SDS011;45269;43.568;22.244;2022-12-18T04:46:41;62.63;;;48.80;;
59458;SDS011;45269;43.568;22.244;2022-12-18T04:49:06;54.05;;;44.40;;
59458;SDS011;45269;43.568;22.244;2022-12-18T04:51:31;58.92;;;47.58;;
59458;SDS011;45269;43.568;22.244;2022-12-18T04:53:57;58.92;;;46.65;;
59458;SDS011;45269;43.568;22.244;2022-12-18T04:56:22;63.35;;;48.72;;
59458;SDS011;45269;43.568;22.244;2022-12-18T04:58:48;78.03;;;53.90;;
59458;SDS011;45269;43.568;22.244;2022-12-18T05:01:14;60.45;;;46.63;;
59458;SDS011;45269;43.568;22.244;2022-12-18T05:03:40;57.92;;;46.80;;
59458;SDS011;45269;43.568;22.244;2022-12-18T05:06:06;57.25;;;45.53;;
59458;SDS011;45269;43.568;22.244;2022-12-18T05:08:31;59.72;;;45.75;;
59458;SDS011;45269;43.568;22.244;2022-12-18T05:11:04;57.42;;;45.38;;
59458;SDS011;45269;43.568;22.244;2022-12-18T05:13:30;59.42;;;45.78;;
59458;SDS011;45269;43.568;22.244;2022-12-18T05:15:55;64.57;;;46.88;;
59458;SDS011;45269;43.568;22.244;2022-12-18T05:18:22;55.33;;;42.95;;
59458;SDS011;45269;43.568;22.244;2022-12-18T05:20:48;56.15;;;44.30;;
59458;SDS011;45269;43.568;22.244;2022-12-18T05:23:14;92.55;;;60.97;;
59458;SDS011;45269;43.568;22.244;2022-12-18T05:25:39;126.47;;;73.60;;
59458;SDS011;45269;43.568;22.244;2022-12-18T05:28:04;106.70;;;64.40;;
59458;SDS011;45269;43.568;22.244;2022-12-18T05:30:30;68.30;;;48.92;;
59458;SDS011;45269;43.568;22.244;2022-12-18T05:32:55;137.75;;;76.97;;
59458;SDS011;45269;43.568;22.244;2022-12-18T05:35:21;121.35;;;78.63;;
59458;SDS011;45269;43.568;22.244;2022-12-18T05:37:46;78.13;;;57.53;;
59458;SDS011;45269;43.568;22.244;2022-12-18T05:40:11;56.17;;;44.38;;
59458;SDS011;45269;43.568;22.244;2022-12-18T05:42:37;65.10;;;49.53;;
59458;SDS011;45269;43.568;22.244;2022-12-18T05:45:02;61.47;;;48.80;;
59458;SDS011;45269;43.568;22.244;2022-12-18T05:47:28;59.17;;;47.03;;
59458;SDS011;45269;43.568;22.244;2022-12-18T05:49:53;55.72;;;44.90;;
59458;SDS011;45269;43.568;22.244;2022-12-18T05:52:19;59.20;;;47.00;;
59458;SDS011;45269;43.568;22.244;2022-12-18T05:54:44;61.13;;;49.75;;
59458;SDS011;45269;43.568;22.244;2022-12-18T05:57:09;63.45;;;48.80;;
59458;SDS011;45269;43.568;22.244;2022-12-18T05:59:35;56.15;;;45.35;;
59458;SDS011;45269;43.568;22.244;2022-12-18T06:02:00;58.00;;;47.00;;
59458;SDS011;45269;43.568;22.244;2022-12-18T06:04:26;63.33;;;46.85;;
59458;SDS011;45269;43.568;22.244;2022-12-18T06:06:52;60.10;;;47.53;;
59458;SDS011;45269;43.568;22.244;2022-12-18T06:09:18;61.40;;;46.85;;
59458;SDS011;45269;43.568;22.244;2022-12-18T06:11:43;63.80;;;49.83;;
59458;SDS011;45269;43.568;22.244;2022-12-18T06:14:08;63.25;;;48.40;;
59458;SDS011;45269;43.568;22.244;2022-12-18T06:16:34;62.88;;;48.30;;
59458;SDS011;45269;43.568;22.244;2022-12-18T06:19:00;60.58;;;47.60;;
59458;SDS011;45269;43.568;22.244;2022-12-18T06:21:26;60.15;;;47.40;;
59458;SDS011;45269;43.568;22.244;2022-12-18T06:23:52;63.17;;;48.53;;
59458;SDS011;45269;43.568;22.244;2022-12-18T06:26:17;64.85;;;49.50;;
59458;SDS011;45269;43.568;22.244;2022-12-18T06:28:43;58.53;;;46.90;;
59458;SDS011;45269;43.568;22.244;2022-12-18T06:31:08;60.92;;;47.45;;
59458;SDS011;45269;43.568;22.244;2022-12-18T06:33:34;59.53;;;44.92;;
59458;SDS011;45269;43.568;22.244;2022-12-18T06:36:03;59.58;;;48.05;;
59458;SDS011;45269;43.568;22.244;2022-12-18T06:40:54;65.97;;;49.87;;
59458;SDS011;45269;43.568;22.244;2022-12-18T06:43:20;60.10;;;47.65;;
59458;SDS011;45269;43.568;22.244;2022-12-18T06:45:45;62.25;;;48.90;;
59458;SDS011;45269;43.568;22.244;2022-12-18T06:48:14;65.72;;;49.10;;
59458;SDS011;45269;43.568;22.244;2022-12-18T06:50:41;59.33;;;45.13;;
59458;SDS011;45269;43.568;22.244;2022-12-18T06:53:07;72.90;;;47.28;;
59458;SDS011;45269;43.568;22.244;2022-12-18T06:55:32;64.75;;;53.15;;
59458;SDS011;45269;43.568;22.244;2022-12-18T06:57:57;62.08;;;49.45;;
59458;SDS011;45269;43.568;22.244;2022-12-18T07:00:23;88.75;;;70.32;;
59458;SDS011;45269;43.568;22.244;2022-12-18T07:02:48;99.80;;;81.82;;
59458;SDS011;45269;43.568;22.244;2022-12-18T07:05:13;70.30;;;59.03;;
59458;SDS011;45269;43.568;22.244;2022-12-18T07:07:39;66.53;;;57.35;;
59458;SDS011;45269;43.568;22.244;2022-12-18T07:10:04;58.20;;;48.55;;
59458;SDS011;45269;43.568;22.244;2022-12-18T07:12:30;65.25;;;51.00;;
59458;SDS011;45269;43.568;22.244;2022-12-18T07:14:55;64.15;;;53.88;;
59458;SDS011;45269;43.568;22.244;2022-12-18T07:17:20;75.75;;;66.82;;
59458;SDS011;45269;43.568;22.244;2022-12-18T07:19:46;61.88;;;50.38;;
59458;SDS011;45269;43.568;22.244;2022-12-18T07:22:11;67.28;;;51.70;;
59458;SDS011;45269;43.568;22.244;2022-12-18T07:24:36;70.45;;;53.50;;
59458;SDS011;45269;43.568;22.244;2022-12-18T07:27:02;69.32;;;52.67;;
59458;SDS011;45269;43.568;22.244;2022-12-18T07:29:27;59.45;;;49.05;;
59458;SDS011;45269;43.568;22.244;2022-12-18T07:31:53;54.20;;;44.05;;
59458;SDS011;45269;43.568;22.244;2022-12-18T07:34:18;52.55;;;41.78;;
59458;SDS011;45269;43.568;22.244;2022-12-18T07:36:44;51.35;;;41.08;;
59458;SDS011;45269;43.568;22.244;2022-12-18T07:39:10;62.38;;;50.00;;
59458;SDS011;45269;43.568;22.244;2022-12-18T07:41:35;62.28;;;49.75;;
59458;SDS011;45269;43.568;22.244;2022-12-18T07:44:01;61.20;;;46.70;;
59458;SDS011;45269;43.568;22.244;2022-12-18T07:46:26;62.65;;;49.30;;
59458;SDS011;45269;43.568;22.244;2022-12-18T07:48:51;57.78;;;46.88;;
59458;SDS011;45269;43.568;22.244;2022-12-18T07:51:18;59.33;;;46.50;;
59458;SDS011;45269;43.568;22.244;2022-12-18T07:53:43;55.15;;;43.85;;
59458;SDS011;45269;43.568;22.244;2022-12-18T07:56:10;73.95;;;56.70;;
59458;SDS011;45269;43.568;22.244;2022-12-18T07:58:36;75.45;;;61.53;;
59458;SDS011;45269;43.568;22.244;2022-12-18T08:01:06;79.00;;;59.28;;
59458;SDS011;45269;43.568;22.244;2022-12-18T08:03:31;55.40;;;45.65;;
59458;SDS011;45269;43.568;22.244;2022-12-18T08:06:03;78.28;;;62.65;;
59458;SDS011;45269;43.568;22.244;2022-12-18T08:08:29;93.80;;;78.43;;
59458;SDS011;45269;43.568;22.244;2022-12-18T08:10:55;126.00;;;105.20;;
59458;SDS011;45269;43.568;22.244;2022-12-18T08:13:20;113.03;;;94.07;;
59458;SDS011;45269;43.568;22.244;2022-12-18T08:15:45;171.75;;;119.75;;
59458;SDS011;45269;43.568;22.244;2022-12-18T08:18:11;256.35;;;128.35;;
59458;SDS011;45269;43.568;22.244;2022-12-18T08:20:36;108.97;;;93.70;;
59458;SDS011;45269;43.568;22.244;2022-12-18T08:23:01;98.60;;;83.53;;
59458;SDS011;45269;43.568;22.244;2022-12-18T08:25:27;78.47;;;68.18;;
59458;SDS011;45269;43.568;22.244;2022-12-18T08:27:52;85.28;;;73.22;;
59458;SDS011;45269;43.568;22.244;2022-12-18T08:30:18;66.45;;;56.25;;
59458;SDS011;45269;43.568;22.244;2022-12-18T08:32:43;73.82;;;60.75;;
59458;SDS011;45269;43.568;22.244;2022-12-18T08:35:08;105.47;;;89.22;;
59458;SDS011;45269;43.568;22.244;2022-12-18T08:37:34;72.07;;;60.50;;
59458;SDS011;45269;43.568;22.244;2022-12-18T08:39:59;59.30;;;49.28;;
59458;SDS011;45269;43.568;22.244;2022-12-18T08:42:25;72.50;;;62.58;;
59458;SDS011;45269;43.568;22.244;2022-12-18T08:45:08;67.93;;;56.10;;
59458;SDS011;45269;43.568;22.244;2022-12-18T08:47:34;77.75;;;62.45;;
59458;SDS011;45269;43.568;22.244;2022-12-18T08:49:59;63.83;;;53.30;;
59458;SDS011;45269;43.568;22.244;2022-12-18T08:52:24;63.05;;;52.65;;
59458;SDS011;45269;43.568;22.244;2022-12-18T08:54:50;89.20;;;71.88;;
59458;SDS011;45269;43.568;22.244;2022-12-18T08:57:15;60.35;;;45.47;;
59458;SDS011;45269;43.568;22.244;2022-12-18T08:59:41;86.38;;;66.53;;
59458;SDS011;45269;43.568;22.244;2022-12-18T09:02:07;71.40;;;55.97;;
59458;SDS011;45269;43.568;22.244;2022-12-18T09:04:33;81.95;;;62.17;;
59458;SDS011;45269;43.568;22.244;2022-12-18T09:06:58;87.63;;;71.72;;
59458;SDS011;45269;43.568;22.244;2022-12-18T09:09:23;109.18;;;89.38;;
59458;SDS011;45269;43.568;22.244;2022-12-18T09:11:49;134.18;;;100.47;;
59458;SDS011;45269;43.568;22.244;2022-12-18T09:14:14;102.85;;;78.47;;
59458;SDS011;45269;43.568;22.244;2022-12-18T09:16:40;109.30;;;82.47;;
59458;SDS011;45269;43.568;22.244;2022-12-18T09:19:05;91.28;;;70.75;;
59458;SDS011;45269;43.568;22.244;2022-12-18T09:21:31;65.05;;;50.15;;
59458;SDS011;45269;43.568;22.244;2022-12-18T09:23:57;76.03;;;62.35;;
59458;SDS011;45269;43.568;22.244;2022-12-18T09:26:23;67.70;;;53.35;;
59458;SDS011;45269;43.568;22.244;2022-12-18T09:28:48;103.18;;;80.25;;
59458;SDS011;45269;43.568;22.244;2022-12-18T09:31:14;65.35;;;53.53;;
59458;SDS011;45269;43.568;22.244;2022-12-18T09:33:40;56.15;;;46.30;;
59458;SDS011;45269;43.568;22.244;2022-12-18T09:36:06;77.97;;;65.65;;
59458;SDS011;45269;43.568;22.244;2022-12-18T09:38:32;80.53;;;68.55;;
59458;SDS011;45269;43.568;22.244;2022-12-18T09:40:59;65.05;;;55.13;;
59458;SDS011;45269;43.568;22.244;2022-12-18T09:43:47;69.18;;;55.88;;
59458;SDS011;45269;43.568;22.244;2022-12-18T09:46:17;50.75;;;42.33;;
59458;SDS011;45269;43.568;22.244;2022-12-18T09:48:45;59.53;;;51.20;;
59458;SDS011;45269;43.568;22.244;2022-12-18T09:51:22;62.58;;;55.10;;
59458;SDS011;45269;43.568;22.244;2022-12-18T09:53:53;49.97;;;42.53;;
59458;SDS011;45269;43.568;22.244;2022-12-18T09:56:20;50.50;;;41.67;;
59458;SDS011;45269;43.568;22.244;2022-12-18T10:01:14;45.80;;;36.63;;
59458;SDS011;45269;43.568;22.244;2022-12-18T10:03:41;45.85;;;37.90;;
59458;SDS011;45269;43.568;22.244;2022-12-18T10:06:08;92.95;;;69.22;;
59458;SDS011;45269;43.568;22.244;2022-12-18T10:11:28;66.93;;;54.50;;
59458;SDS011;45269;43.568;22.244;2022-12-18T10:14:09;46.33;;;38.78;;
59458;SDS011;45269;43.568;22.244;2022-12-18T10:16:50;42.50;;;36.05;;
59458;SDS011;45269;43.568;22.244;2022-12-18T10:19:32;45.67;;;38.90;;
59458;SDS011;45269;43.568;22.244;2022-12-18T10:22:09;39.10;;;32.95;;
59458;SDS011;45269;43.568;22.244;2022-12-18T10:24:47;43.78;;;36.83;;
59458;SDS011;45269;43.568;22.244;2022-12-18T10:27:15;39.20;;;31.45;;
59458;SDS011;45269;43.568;22.244;2022-12-18T10:29:41;36.55;;;30.67;;
59458;SDS011;45269;43.568;22.244;2022-12-18T10:32:07;39.70;;;31.38;;
59458;SDS011;45269;43.568;22.244;2022-12-18T10:34:34;33.10;;;27.10;;
59458;SDS011;45269;43.568;22.244;2022-12-18T10:37:00;52.03;;;41.45;;
59458;SDS011;45269;43.568;22.244;2022-12-18T10:39:25;42.58;;;34.38;;
59458;SDS011;45269;43.568;22.244;2022-12-18T10:41:51;47.97;;;37.97;;
59458;SDS011;45269;43.568;22.244;2022-12-18T10:44:23;58.10;;;46.58;;
59458;SDS011;45269;43.568;22.244;2022-12-18T10:46:55;45.85;;;36.50;;
59458;SDS011;45269;43.568;22.244;2022-12-18T10:49:28;48.53;;;38.67;;
59458;SDS011;45269;43.568;22.244;2022-12-18T10:52:17;49.72;;;41.90;;
59458;SDS011;45269;43.568;22.244;2022-12-18T10:54:59;59.23;;;48.60;;
59458;SDS011;45269;43.568;22.244;2022-12-18T10:57:34;62.97;;;50.95;;
59458;SDS011;45269;43.568;22.244;2022-12-18T11:02:44;46.08;;;37.55;;
59458;SDS011;45269;43.568;22.244;2022-12-18T11:05:31;40.60;;;35.45;;
59458;SDS011;45269;43.568;22.244;2022-12-18T11:07:55;45.03;;;37.10;;
59458;SDS011;45269;43.568;22.244;2022-12-18T11:10:23;49.55;;;38.65;;
59458;SDS011;45269;43.568;22.244;2022-12-18T11:12:48;46.15;;;36.90;;
59458;SDS011;45269;43.568;22.244;2022-12-18T11:15:27;49.40;;;39.10;;
59458;SDS011;45269;43.568;22.244;2022-12-18T11:17:53;69.57;;;55.35;;
59458;SDS011;45269;43.568;22.244;2022-12-18T11:22:44;44.95;;;39.42;;
59458;SDS011;45269;43.568;22.244;2022-12-18T11:25:19;57.90;;;44.50;;
59458;SDS011;45269;43.568;22.244;2022-12-18T11:27:52;36.35;;;29.98;;
59458;SDS011;45269;43.568;22.244;2022-12-18T11:38:00;39.17;;;33.20;;
59458;SDS011;45269;43.568;22.244;2022-12-18T11:40:33;45.63;;;37.90;;
59458;SDS011;45269;43.568;22.244;2022-12-18T11:45:35;52.78;;;42.97;;
59458;SDS011;45269;43.568;22.244;2022-12-18T11:48:03;40.97;;;32.28;;
59458;SDS011;45269;43.568;22.244;2022-12-18T11:53:01;41.53;;;36.53;;
59458;SDS011;45269;43.568;22.244;2022-12-18T12:00:43;41.80;;;34.28;;
59458;SDS011;45269;43.568;22.244;2022-12-18T12:08:30;65.28;;;51.17;;
59458;SDS011;45269;43.568;22.244;2022-12-18T12:13:38;52.53;;;43.92;;
59458;SDS011;45269;43.568;22.244;2022-12-18T12:23:35;45.50;;;32.28;;
59458;SDS011;45269;43.568;22.244;2022-12-18T12:26:08;33.80;;;28.00;;
59458;SDS011;45269;43.568;22.244;2022-12-18T12:31:16;82.57;;;65.53;;
59458;SDS011;45269;43.568;22.244;2022-12-18T12:38:48;89.40;;;69.28;;
59458;SDS011;45269;43.568;22.244;2022-12-18T12:41:17;57.47;;;48.38;;
59458;SDS011;45269;43.568;22.244;2022-12-18T12:44:03;43.75;;;38.53;;
59458;SDS011;45269;43.568;22.244;2022-12-18T12:46:31;44.40;;;35.97;;
59458;SDS011;45269;43.568;22.244;2022-12-18T12:49:19;40.90;;;33.00;;
59458;SDS011;45269;43.568;22.244;2022-12-18T12:51:43;34.85;;;27.58;;
59458;SDS011;45269;43.568;22.244;2022-12-18T12:54:15;41.17;;;30.83;;
59458;SDS011;45269;43.568;22.244;2022-12-18T12:56:51;36.83;;;28.85;;
59458;SDS011;45269;43.568;22.244;2022-12-18T13:07:06;42.97;;;35.50;;
59458;SDS011;45269;43.568;22.244;2022-12-18T13:09:35;41.78;;;33.50;;
59458;SDS011;45269;43.568;22.244;2022-12-18T13:12:20;32.13;;;25.05;;
59458;SDS011;45269;43.568;22.244;2022-12-18T13:15:20;30.35;;;25.48;;
59458;SDS011;45269;43.568;22.244;2022-12-18T13:17:46;32.67;;;28.67;;
59458;SDS011;45269;43.568;22.244;2022-12-18T13:20:12;35.90;;;30.58;;
59458;SDS011;45269;43.568;22.244;2022-12-18T13:22:43;38.60;;;33.13;;
59458;SDS011;45269;43.568;22.244;2022-12-18T13:28:10;44.67;;;39.22;;
59458;SDS011;45269;43.568;22.244;2022-12-18T13:30:49;42.55;;;35.10;;
59458;SDS011;45269;43.568;22.244;2022-12-18T13:40:55;40.45;;;35.03;;
59458;SDS011;45269;43.568;22.244;2022-12-18T13:45:48;48.00;;;36.53;;
59458;SDS011;45269;43.568;22.244;2022-12-18T13:48:18;43.42;;;36.33;;
59458;SDS011;45269;43.568;22.244;2022-12-18T13:50:48;45.97;;;36.97;;
59458;SDS011;45269;43.568;22.244;2022-12-18T13:53:21;48.95;;;36.22;;
59458;SDS011;45269;43.568;22.244;2022-12-18T13:55:47;57.70;;;42.70;;
59458;SDS011;45269;43.568;22.244;2022-12-18T13:58:13;44.50;;;33.78;;
59458;SDS011;45269;43.568;22.244;2022-12-18T14:00:42;52.22;;;36.95;;
59458;SDS011;45269;43.568;22.244;2022-12-18T14:03:18;44.20;;;34.90;;
59458;SDS011;45269;43.568;22.244;2022-12-18T14:05:44;54.47;;;39.63;;
59458;SDS011;45269;43.568;22.244;2022-12-18T14:08:14;45.42;;;33.33;;
59458;SDS011;45269;43.568;22.244;2022-12-18T14:10:40;41.45;;;33.45;;
59458;SDS011;45269;43.568;22.244;2022-12-18T14:13:07;49.97;;;40.45;;
59458;SDS011;45269;43.568;22.244;2022-12-18T14:15:43;63.92;;;48.13;;
59458;SDS011;45269;43.568;22.244;2022-12-18T14:20:34;60.58;;;50.15;;
59458;SDS011;45269;43.568;22.244;2022-12-18T14:23:00;52.95;;;44.00;;
59458;SDS011;45269;43.568;22.244;2022-12-18T14:25:26;62.72;;;49.63;;
59458;SDS011;45269;43.568;22.244;2022-12-18T14:30:35;82.90;;;64.35;;
59458;SDS011;45269;43.568;22.244;2022-12-18T14:33:04;128.50;;;103.65;;
59458;SDS011;45269;43.568;22.244;2022-12-18T14:35:30;102.75;;;80.63;;
59458;SDS011;45269;43.568;22.244;2022-12-18T14:40:36;106.30;;;83.63;;
59458;SDS011;45269;43.568;22.244;2022-12-18T14:43:02;143.65;;;111.28;;
59458;SDS011;45269;43.568;22.244;2022-12-18T14:45:37;85.75;;;68.72;;
59458;SDS011;45269;43.568;22.244;2022-12-18T14:48:08;72.40;;;61.53;;
59458;SDS011;45269;43.568;22.244;2022-12-18T14:50:37;100.90;;;86.57;;
59458;SDS011;45269;43.568;22.244;2022-12-18T14:53:03;86.22;;;68.03;;
59458;SDS011;45269;43.568;22.244;2022-12-18T14:55:28;121.25;;;105.25;;
59458;SDS011;45269;43.568;22.244;2022-12-18T14:57:54;77.53;;;65.60;;
59458;SDS011;45269;43.568;22.244;2022-12-18T15:00:21;102.65;;;77.28;;
59458;SDS011;45269;43.568;22.244;2022-12-18T15:02:48;116.60;;;91.07;;
59458;SDS011;45269;43.568;22.244;2022-12-18T15:05:25;104.20;;;73.57;;
59458;SDS011;45269;43.568;22.244;2022-12-18T15:07:52;129.90;;;93.43;;
59458;SDS011;45269;43.568;22.244;2022-12-18T15:10:18;190.18;;;118.90;;
59458;SDS011;45269;43.568;22.244;2022-12-18T15:12:48;116.03;;;83.32;;
59458;SDS011;45269;43.568;22.244;2022-12-18T15:18:10;216.13;;;152.80;;
59458;SDS011;45269;43.568;22.244;2022-12-18T15:20:40;169.20;;;130.75;;
59458;SDS011;45269;43.568;22.244;2022-12-18T15:25:34;84.83;;;69.53;;
59458;SDS011;45269;43.568;22.244;2022-12-18T15:30:26;130.97;;;99.37;;
59458;SDS011;45269;43.568;22.244;2022-12-18T15:32:52;121.03;;;93.10;;
59458;SDS011;45269;43.568;22.244;2022-12-18T15:35:37;143.38;;;101.68;;
59458;SDS011;45269;43.568;22.244;2022-12-18T15:38:02;94.38;;;76.07;;
59458;SDS011;45269;43.568;22.244;2022-12-18T15:40:27;96.38;;;79.85;;
59458;SDS011;45269;43.568;22.244;2022-12-18T15:42:53;92.93;;;77.00;;
59458;SDS011;45269;43.568;22.244;2022-12-18T15:45:38;59.33;;;50.88;;
59458;SDS011;45269;43.568;22.244;2022-12-18T15:48:18;59.75;;;48.97;;
59458;SDS011;45269;43.568;22.244;2022-12-18T15:50:44;49.50;;;40.10;;
59458;SDS011;45269;43.568;22.244;2022-12-18T15:53:10;55.00;;;44.33;;
59458;SDS011;45269;43.568;22.244;2022-12-18T15:55:35;46.00;;;36.83;;
59458;SDS011;45269;43.568;22.244;2022-12-18T15:58:19;57.33;;;47.28;;
59458;SDS011;45269;43.568;22.244;2022-12-18T16:00:45;68.53;;;52.85;;
59458;SDS011;45269;43.568;22.244;2022-12-18T16:03:11;88.43;;;66.80;;
59458;SDS011;45269;43.568;22.244;2022-12-18T16:05:36;104.93;;;86.68;;